createdAt,value
2023-05-17T00:01:38.572Z,101656.06
2023-05-17T00:04:24.998Z,101652.56
2023-05-17T00:07:11.322Z,101658.44
2023-05-17T00:09:57.152Z,101650.88
2023-05-17T00:12:43.210Z,101654.22
2023-05-17T00:15:29.183Z,101646.19
2023-05-17T00:18:16.720Z,101652.75
2023-05-17T00:21:03.178Z,101651.25
2023-05-17T00:23:49.068Z,101655.59
2023-05-17T00:26:35.404Z,101655.25
2023-05-17T00:29:21.792Z,101658.81
2023-05-17T00:32:08.296Z,101651.56
2023-05-17T00:34:56.153Z,101651.72
2023-05-17T00:37:47.520Z,101654.59
2023-05-17T00:40:33.439Z,101653.41
2023-05-17T00:43:19.228Z,101653.22
2023-05-17T00:46:05.913Z,101650.56
2023-05-17T00:48:52.231Z,101645.03
2023-05-17T00:51:40.509Z,101649.53
2023-05-17T00:54:27.329Z,101647.84
2023-05-17T00:57:13.693Z,101650.56
2023-05-17T01:00:00.639Z,101653.72
2023-05-17T01:02:48.653Z,101651.53
2023-05-17T01:05:35.476Z,101659.91
2023-05-17T01:08:23.701Z,101660.41
2023-05-17T01:11:15.679Z,101657.56
2023-05-17T01:14:10.802Z,101666.09
2023-05-17T01:16:58.558Z,101672.13
2023-05-17T01:19:56.031Z,101667.28
2023-05-17T01:22:46.457Z,101672.16
2023-05-17T01:25:46.163Z,101671.09
2023-05-17T01:28:34.633Z,101665.91
2023-05-17T01:31:21.425Z,101678.00
2023-05-17T01:34:08.300Z,101679.66
2023-05-17T01:36:54.355Z,101677.31
2023-05-17T01:39:41.369Z,101667.59
2023-05-17T01:42:31.330Z,101674.63
2023-05-17T01:45:22.914Z,101678.59
2023-05-17T01:48:16.687Z,101679.81
2023-05-17T01:51:03.723Z,101675.63
2023-05-17T01:53:56.769Z,101681.84
2023-05-17T01:56:44.920Z,101682.84
2023-05-17T01:59:32.648Z,101687.88
2023-05-17T02:02:22.304Z,101694.94
2023-05-17T02:05:09.434Z,101694.94
2023-05-17T02:07:58.803Z,101689.75
2023-05-17T02:10:44.680Z,101688.22
2023-05-17T02:13:30.702Z,101681.69
2023-05-17T02:16:16.854Z,101697.78
2023-05-17T02:19:04.478Z,101696.75
2023-05-17T02:21:51.931Z,101694.09
2023-05-17T02:24:37.688Z,101696.47
2023-05-17T02:27:24.579Z,101697.47
2023-05-17T02:30:15.652Z,101702.50
2023-05-17T02:33:03.660Z,101702.31
2023-05-17T02:35:51.377Z,101703.84
2023-05-17T02:38:39.347Z,101702.16
2023-05-17T02:41:25.245Z,101705.84
2023-05-17T02:44:11.026Z,101708.56
2023-05-17T02:46:57.043Z,101716.28
2023-05-17T02:49:43.354Z,101718.94
2023-05-17T02:52:31.072Z,101716.56
2023-05-17T02:55:17.393Z,101716.44
2023-05-17T02:58:04.397Z,101717.28
2023-05-17T03:00:51.334Z,101718.63
2023-05-17T03:03:37.882Z,101721.13
2023-05-17T03:06:25.650Z,101723.16
2023-05-17T03:09:13.401Z,101725.63
2023-05-17T03:11:59.901Z,101728.97
2023-05-17T03:14:50.038Z,101736.50
2023-05-17T03:17:36.792Z,101737.19
2023-05-17T03:20:23.243Z,101738.19
2023-05-17T03:23:09.538Z,101752.94
2023-05-17T03:26:05.352Z,101755.72
2023-05-17T03:28:58.425Z,101758.97
2023-05-17T03:31:44.927Z,101762.66
2023-05-17T03:34:31.817Z,101765.44
2023-05-17T03:37:18.165Z,101766.66
2023-05-17T03:40:05.853Z,101762.44
2023-05-17T03:42:54.197Z,101765.09
2023-05-17T03:45:40.002Z,101773.31
2023-05-17T03:48:26.346Z,101781.84
2023-05-17T03:51:13.283Z,101772.75
2023-05-17T03:54:01.469Z,101779.00
2023-05-17T03:56:50.264Z,101778.84
2023-05-17T03:59:38.855Z,101784.38
2023-05-17T04:02:25.691Z,101783.88
2023-05-17T04:05:13.200Z,101795.94
2023-05-17T04:08:01.453Z,101793.88
2023-05-17T04:10:47.606Z,101796.53
2023-05-17T04:13:34.150Z,101800.38
2023-05-17T04:16:22.045Z,101816.63
2023-05-17T04:19:08.572Z,101818.31
2023-05-17T04:21:55.106Z,101822.66
2023-05-17T04:24:43.788Z,101823.94
2023-05-17T04:27:30.207Z,101832.91
2023-05-17T04:30:16.979Z,101833.97
2023-05-17T04:33:05.950Z,101827.78
2023-05-17T04:35:55.862Z,101836.38
2023-05-17T04:38:42.591Z,101843.94
2023-05-17T04:41:31.859Z,101853.81
2023-05-17T04:44:18.557Z,101850.09
2023-05-17T04:47:05.235Z,101849.91
2023-05-17T04:49:52.728Z,101862.03
2023-05-17T04:52:38.899Z,101853.34
2023-05-17T04:55:28.981Z,101860.22
2023-05-17T04:58:15.245Z,101869.25
2023-05-17T05:01:03.886Z,101875.22
2023-05-17T05:03:50.232Z,101876.38
2023-05-17T05:06:37.934Z,101868.75
2023-05-17T05:09:24.294Z,101879.88
2023-05-17T05:12:11.100Z,101884.53
2023-05-17T05:14:59.601Z,101878.25
2023-05-17T05:17:47.605Z,101886.84
2023-05-17T05:20:33.899Z,101894.88
2023-05-17T05:23:24.546Z,101904.13
2023-05-17T05:26:11.165Z,101897.41
2023-05-17T05:28:58.072Z,101901.50
2023-05-17T05:31:44.250Z,101912.66
2023-05-17T05:34:31.594Z,101913.50
2023-05-17T05:37:19.167Z,101924.59
2023-05-17T05:40:08.827Z,101923.06
2023-05-17T05:42:55.347Z,101925.75
2023-05-17T05:45:45.739Z,101931.81
2023-05-17T05:48:31.715Z,101929.16
2023-05-17T05:51:19.363Z,101931.97
2023-05-17T05:54:06.778Z,101938.97
2023-05-17T05:56:54.507Z,101943.75
2023-05-17T05:59:40.772Z,101948.97
2023-05-17T06:02:27.420Z,101943.44
2023-05-17T06:05:13.772Z,101949.69
2023-05-17T06:08:00.411Z,101958.41
2023-05-17T06:10:46.718Z,101962.72
2023-05-17T06:13:34.261Z,101957.44
2023-05-17T06:16:20.193Z,101964.50
2023-05-17T06:19:06.288Z,101967.88
2023-05-17T06:21:52.653Z,101957.78
2023-05-17T06:24:38.579Z,101972.94
2023-05-17T06:27:24.873Z,101971.56
2023-05-17T06:30:13.278Z,101980.31
2023-05-17T06:32:59.728Z,101983.28
2023-05-17T06:35:56.358Z,101997.09
2023-05-17T06:38:43.712Z,101987.31
2023-05-17T06:41:29.829Z,101995.53
2023-05-17T06:44:18.258Z,101998.22
2023-05-17T06:47:06.098Z,101990.97
2023-05-17T06:49:52.392Z,101995.69
2023-05-17T06:52:38.448Z,102001.06
2023-05-17T06:55:25.088Z,101998.16
2023-05-17T06:58:10.965Z,102001.34
2023-05-17T07:00:57.295Z,102010.34
2023-05-17T07:03:45.095Z,102013.06
2023-05-17T07:06:31.270Z,102011.97
2023-05-17T07:09:17.994Z,102016.16
2023-05-17T07:12:06.356Z,102020.97
2023-05-17T07:14:52.538Z,102013.66
2023-05-17T07:17:38.977Z,102026.59
2023-05-17T07:20:27.075Z,102035.34
2023-05-17T07:23:13.222Z,102023.81
2023-05-17T07:25:59.084Z,102026.16
2023-05-17T07:28:45.004Z,102023.16
2023-05-17T07:31:31.580Z,102033.97
2023-05-17T07:34:18.065Z,102030.41
2023-05-17T07:37:05.999Z,102034.31
2023-05-17T07:39:52.127Z,102043.81
2023-05-17T07:42:38.053Z,102049.75
2023-05-17T07:45:24.017Z,102053.25
2023-05-17T07:48:11.319Z,102064.97
2023-05-17T07:50:57.573Z,102065.22
2023-05-17T07:53:44.799Z,102067.69
2023-05-17T07:56:30.797Z,102064.84
2023-05-17T07:59:16.579Z,102065.00
2023-05-17T08:02:02.614Z,102080.72
2023-05-17T08:04:48.692Z,102091.63
2023-05-17T08:07:34.894Z,102094.06
2023-05-17T08:10:22.424Z,102097.56
2023-05-17T08:13:09.120Z,102096.16
2023-05-17T08:16:01.734Z,102096.44
2023-05-17T08:18:58.662Z,102104.09
2023-05-17T08:21:46.231Z,102097.00
2023-05-17T08:24:32.583Z,102099.34
2023-05-17T08:27:20.158Z,102104.94
2023-05-17T08:30:11.695Z,102099.72
2023-05-17T08:33:01.556Z,102107.59
2023-05-17T08:35:48.961Z,102098.25
2023-05-17T08:38:35.437Z,102099.09
2023-05-17T08:41:22.014Z,102104.44
2023-05-17T08:44:10.157Z,102101.53
2023-05-17T08:46:59.015Z,102097.06
2023-05-17T08:49:48.072Z,102100.69
2023-05-17T08:52:35.014Z,102109.56
2023-05-17T08:55:21.087Z,102109.47
2023-05-17T08:58:09.103Z,102112.22
2023-05-17T09:00:57.237Z,102119.25
2023-05-17T09:03:48.465Z,102111.97
2023-05-17T09:06:35.458Z,102110.72
2023-05-17T09:09:22.583Z,102117.63
2023-05-17T09:12:09.271Z,102110.41
2023-05-17T09:14:55.220Z,102110.59
2023-05-17T09:17:43.081Z,102104.84
2023-05-17T09:20:34.980Z,102111.94
2023-05-17T09:23:22.342Z,102122.50
2023-05-17T09:26:08.842Z,102109.94
2023-05-17T09:28:55.097Z,102110.50
2023-05-17T09:31:42.204Z,102111.69
2023-05-17T09:34:29.764Z,102106.91
2023-05-17T09:37:17.255Z,102094.13
2023-05-17T09:40:04.056Z,102097.47
2023-05-17T09:42:50.285Z,102100.13
2023-05-17T09:45:36.891Z,102104.94
2023-05-17T09:48:23.573Z,102103.13
2023-05-17T09:51:11.215Z,102107.72
2023-05-17T09:53:58.979Z,102108.34
2023-05-17T09:56:45.013Z,102109.34
2023-05-17T09:59:31.113Z,102114.97
2023-05-17T10:02:22.039Z,102115.38
2023-05-17T10:05:12.108Z,102111.88
2023-05-17T10:07:59.765Z,102124.44
2023-05-17T10:10:46.387Z,102132.94
2023-05-17T10:13:35.928Z,102115.63
2023-05-17T10:16:23.406Z,102111.47
2023-05-17T10:19:10.073Z,102110.81
2023-05-17T10:22:04.977Z,102119.22
2023-05-17T10:25:06.993Z,102121.72
2023-05-17T10:27:53.041Z,102126.72
2023-05-17T10:30:39.574Z,102125.63
2023-05-17T10:33:25.728Z,102114.56
2023-05-17T10:36:11.924Z,102113.69
2023-05-17T10:38:59.823Z,102123.03
2023-05-17T10:41:48.996Z,102135.44
2023-05-17T10:44:36.183Z,102124.41
2023-05-17T10:47:22.354Z,102114.09
2023-05-17T10:50:13.062Z,102121.78
2023-05-17T10:52:59.612Z,102126.66
2023-05-17T10:55:46.066Z,102115.19
2023-05-17T10:58:33.552Z,102113.59
2023-05-17T11:01:50.181Z,102114.22
2023-05-17T11:04:37.986Z,102115.16
2023-05-17T11:07:29.239Z,102115.66
2023-05-17T11:10:16.915Z,102120.03
2023-05-17T11:13:23.422Z,102112.53
2023-05-17T11:16:11.194Z,102107.09
2023-05-17T11:18:58.368Z,102099.72
2023-05-17T11:21:48.258Z,102099.94
2023-05-17T11:24:34.373Z,102101.41
2023-05-17T11:27:21.070Z,102092.56
2023-05-17T11:30:17.090Z,102102.44
2023-05-17T11:33:13.530Z,102110.53
2023-05-17T11:36:15.153Z,102113.06
2023-05-17T11:39:11.380Z,102112.84
2023-05-17T11:41:58.396Z,102120.66
2023-05-17T11:44:44.698Z,102122.63
2023-05-17T11:47:31.339Z,102118.19
2023-05-17T11:50:18.803Z,102120.31
2023-05-17T11:53:05.446Z,102118.66
2023-05-17T11:55:51.867Z,102122.28
2023-05-17T11:58:38.396Z,102127.22
2023-05-17T12:01:24.428Z,102132.97
2023-05-17T12:04:10.461Z,102129.47
2023-05-17T12:06:58.890Z,102131.28
2023-05-17T12:09:45.623Z,102135.84
2023-05-17T12:12:32.479Z,102125.38
2023-05-17T12:15:20.387Z,102129.81
2023-05-17T12:18:06.820Z,102134.66
2023-05-17T12:20:57.214Z,102139.38
2023-05-17T12:23:46.822Z,102132.84
2023-05-17T12:26:34.011Z,102136.47
2023-05-17T12:29:22.707Z,102153.41
2023-05-17T12:32:09.641Z,102146.78
2023-05-17T12:34:56.012Z,102144.56
2023-05-17T12:37:42.122Z,102143.47
2023-05-17T12:40:30.251Z,102149.16
2023-05-17T12:43:16.511Z,102152.75
2023-05-17T12:46:07.612Z,102146.56
2023-05-17T12:48:55.754Z,102155.56
2023-05-17T12:51:43.885Z,102151.16
2023-05-17T12:54:30.788Z,102157.28
2023-05-17T12:57:20.014Z,102154.09
2023-05-17T13:00:09.055Z,102150.97
2023-05-17T13:02:55.022Z,102147.19
2023-05-17T13:05:44.076Z,102142.09
2023-05-17T13:08:30.375Z,102147.84
2023-05-17T13:11:16.792Z,102159.09
2023-05-17T13:14:04.445Z,102169.94
2023-05-17T13:16:52.532Z,102165.03
2023-05-17T13:19:39.230Z,102164.59
2023-05-17T13:22:25.932Z,102158.44
2023-05-17T13:25:13.737Z,102170.22
2023-05-17T13:28:02.398Z,102159.97
2023-05-17T13:30:52.039Z,102170.03
2023-05-17T13:33:38.961Z,102163.38
2023-05-17T13:36:25.177Z,102165.47
2023-05-17T13:39:11.102Z,102155.06
2023-05-17T13:41:56.933Z,102159.78
2023-05-17T13:44:42.836Z,102153.34
2023-05-17T13:47:32.002Z,102162.63
2023-05-17T13:50:19.445Z,102164.47
2023-05-17T13:53:05.750Z,102171.22
2023-05-17T13:55:52.169Z,102166.84
2023-05-17T13:58:38.052Z,102162.47
2023-05-17T14:01:23.933Z,102162.25
2023-05-17T14:04:11.703Z,102166.84
2023-05-17T14:06:57.954Z,102158.69
2023-05-17T14:09:43.779Z,102159.75
2023-05-17T14:12:29.798Z,102158.44
2023-05-17T14:15:15.653Z,102158.84
2023-05-17T14:18:01.694Z,102156.34
2023-05-17T14:20:49.590Z,102155.44
2023-05-17T14:23:36.125Z,102150.88
2023-05-17T14:26:22.682Z,102159.66
2023-05-17T14:29:08.515Z,102153.75
2023-05-17T14:31:54.310Z,102157.50
2023-05-17T14:34:40.269Z,102159.78
2023-05-17T14:37:27.543Z,102154.16
2023-05-17T14:40:13.620Z,102157.91
2023-05-17T14:42:59.815Z,102151.81
2023-05-17T14:45:46.526Z,102169.13
2023-05-17T14:48:33.830Z,102156.59
2023-05-17T14:51:20.189Z,102160.66
2023-05-17T14:54:07.525Z,102145.97
2023-05-17T14:56:53.865Z,102146.47
2023-05-17T14:59:40.153Z,102143.09
2023-05-17T15:02:26.406Z,102152.00
2023-05-17T15:05:12.831Z,102160.13
2023-05-17T15:07:58.975Z,102161.38
2023-05-17T15:10:46.223Z,102152.56
2023-05-17T15:13:32.391Z,102162.13
2023-05-17T15:16:18.331Z,102160.28
2023-05-17T15:19:04.924Z,102165.31
2023-05-17T15:21:51.839Z,102163.44
2023-05-17T15:24:39.486Z,102171.56
2023-05-17T15:27:26.728Z,102185.16
2023-05-17T15:30:13.928Z,102175.66
2023-05-17T15:33:01.065Z,102177.72
2023-05-17T15:35:47.154Z,102175.34
2023-05-17T15:38:33.133Z,102181.06
2023-05-17T15:41:21.618Z,102177.88
2023-05-17T15:44:09.353Z,102179.38
2023-05-17T15:46:55.339Z,102175.47
2023-05-17T15:49:41.380Z,102189.28
2023-05-17T15:52:27.521Z,102181.47
2023-05-17T15:55:13.291Z,102176.53
2023-05-17T15:57:59.052Z,102185.03
2023-05-17T16:00:46.998Z,102179.56
2023-05-17T16:03:33.397Z,102173.41
2023-05-17T16:06:21.801Z,102184.97
2023-05-17T16:09:08.466Z,102187.03
2023-05-17T16:11:54.419Z,102183.56
2023-05-17T16:14:40.775Z,102182.66
2023-05-17T16:17:28.292Z,102184.31
2023-05-17T16:20:14.427Z,102191.47
2023-05-17T16:23:00.665Z,102188.28
2023-05-17T16:25:47.169Z,102190.31
2023-05-17T16:28:35.399Z,102192.53
2023-05-17T16:31:21.512Z,102181.06
2023-05-17T16:34:09.158Z,102189.28
2023-05-17T16:36:55.633Z,102184.84
2023-05-17T16:39:41.797Z,102193.38
2023-05-17T16:42:28.366Z,102190.13
2023-05-17T16:45:14.509Z,102198.31
2023-05-17T16:48:00.623Z,102197.00
2023-05-17T16:50:49.481Z,102194.69
2023-05-17T16:53:35.277Z,102214.16
2023-05-17T16:56:22.126Z,102217.75
2023-05-17T16:59:08.103Z,102224.72
2023-05-17T17:01:54.122Z,102221.38
2023-05-17T17:04:40.430Z,102227.66
2023-05-17T17:07:28.005Z,102233.03
2023-05-17T17:10:14.599Z,102236.75
2023-05-17T17:13:00.542Z,102236.03
2023-05-17T17:15:46.764Z,102234.63
2023-05-17T17:18:32.866Z,102239.41
2023-05-17T17:21:19.210Z,102237.19
2023-05-17T17:24:07.319Z,102235.16
2023-05-17T17:26:53.171Z,102231.13
2023-05-17T17:29:39.208Z,102240.31
2023-05-17T17:32:25.115Z,102240.06
2023-05-17T17:35:11.515Z,102241.06
2023-05-17T17:37:57.778Z,102240.94
2023-05-17T17:40:45.926Z,102254.13
2023-05-17T17:43:31.737Z,102251.94
2023-05-17T17:46:17.658Z,102251.63
2023-05-17T17:49:04.382Z,102256.56
2023-05-17T17:51:50.714Z,102258.94
2023-05-17T17:54:36.981Z,102260.47
2023-05-17T17:57:24.203Z,102260.16
2023-05-17T18:00:12.703Z,102258.78
2023-05-17T18:02:59.409Z,102261.34
2023-05-17T18:05:46.139Z,102266.88
2023-05-17T18:08:32.274Z,102272.28
2023-05-17T18:11:18.289Z,102268.25
2023-05-17T18:14:06.130Z,102279.22
2023-05-17T18:16:52.217Z,102274.00
2023-05-17T18:19:38.299Z,102266.56
2023-05-17T18:22:24.109Z,102273.50
2023-05-17T18:25:11.260Z,102277.41
2023-05-17T18:27:57.336Z,102277.22
2023-05-17T18:30:44.515Z,102276.75
2023-05-17T18:33:30.550Z,102275.72
2023-05-17T18:36:17.021Z,102281.44
2023-05-17T18:39:03.008Z,102274.38
2023-05-17T18:41:49.420Z,102276.03
2023-05-17T18:44:36.016Z,102283.78
2023-05-17T18:47:23.731Z,102276.91
2023-05-17T18:50:09.986Z,102281.38
2023-05-17T18:52:57.258Z,102284.38
2023-05-17T18:55:43.763Z,102283.69
2023-05-17T18:58:29.805Z,102289.41
2023-05-17T19:01:16.099Z,102284.03
2023-05-17T19:04:04.105Z,102295.25
2023-05-17T19:06:50.616Z,102291.38
2023-05-17T19:09:36.881Z,102301.91
2023-05-17T19:12:23.375Z,102302.41
2023-05-17T19:15:10.415Z,102304.06
2023-05-17T19:17:56.608Z,102298.63
2023-05-17T19:20:44.243Z,102302.63
2023-05-17T19:23:32.037Z,102303.63
2023-05-17T19:26:18.086Z,102301.63
2023-05-17T19:29:04.196Z,102310.25
2023-05-17T19:31:50.617Z,102294.66
2023-05-17T19:34:36.774Z,102306.34
2023-05-17T19:37:24.006Z,102310.47
2023-05-17T19:40:11.234Z,102313.31
2023-05-17T19:42:57.111Z,102315.22
2023-05-17T19:45:43.325Z,102311.81
2023-05-17T19:48:29.518Z,102319.63
2023-05-17T19:51:16.070Z,102314.81
2023-05-17T19:54:03.613Z,102315.06
2023-05-17T19:56:49.473Z,102321.88
2023-05-17T19:59:35.844Z,102322.66
2023-05-17T20:02:22.380Z,102323.72
2023-05-17T20:05:09.637Z,102329.38
2023-05-17T20:07:55.972Z,102315.91
2023-05-17T20:10:43.190Z,102317.38
2023-05-17T20:13:29.550Z,102324.44
2023-05-17T20:16:15.927Z,102321.38
2023-05-17T20:19:02.037Z,102324.50
2023-05-17T20:21:48.189Z,102326.47
2023-05-17T20:24:34.863Z,102326.03
2023-05-17T20:27:25.873Z,102327.75
2023-05-17T20:30:12.180Z,102325.13
2023-05-17T20:32:58.532Z,102320.63
2023-05-17T20:35:44.854Z,102320.50
2023-05-17T20:38:30.970Z,102320.97
2023-05-17T20:41:17.087Z,102320.28
2023-05-17T20:44:04.630Z,102323.16
2023-05-17T20:46:51.397Z,102325.41
2023-05-17T20:49:37.682Z,102325.97
2023-05-17T20:52:38.093Z,102328.81
2023-05-17T20:55:25.525Z,102329.81
2023-05-17T20:58:11.637Z,102343.50
2023-05-17T21:00:59.842Z,102340.69
2023-05-17T21:03:46.417Z,102345.50
2023-05-17T21:06:32.886Z,102346.91
2023-05-17T21:09:18.995Z,102345.50
2023-05-17T21:12:05.795Z,102341.41
2023-05-17T21:15:03.682Z,102346.34
2023-05-17T21:17:55.426Z,102339.59
2023-05-17T21:20:41.691Z,102350.00
2023-05-17T21:23:27.652Z,102344.97
2023-05-17T21:26:14.228Z,102345.81
2023-05-17T21:29:00.485Z,102341.84
2023-05-17T21:31:46.570Z,102346.34
2023-05-17T21:34:34.169Z,102349.72
2023-05-17T21:37:20.255Z,102341.84
2023-05-17T21:40:08.003Z,102350.31
2023-05-17T21:42:54.146Z,102355.63
2023-05-17T21:45:41.120Z,102361.97
2023-05-17T21:48:27.166Z,102367.91
2023-05-17T21:51:15.338Z,102363.78
2023-05-17T21:54:01.437Z,102363.50
2023-05-17T21:56:47.452Z,102364.06
2023-05-17T21:59:33.225Z,102369.38
2023-05-17T22:02:19.595Z,102370.75
2023-05-17T22:05:06.840Z,102364.25
2023-05-17T22:07:54.105Z,102365.28
2023-05-17T22:10:40.988Z,102370.69
2023-05-17T22:13:27.182Z,102373.34
2023-05-17T22:16:13.832Z,102376.66
2023-05-17T22:19:01.147Z,102379.34
2023-05-17T22:21:47.269Z,102377.06
2023-05-17T22:24:34.458Z,102377.63
2023-05-17T22:27:20.812Z,102383.28
2023-05-17T22:30:08.018Z,102382.53
2023-05-17T22:32:56.909Z,102376.34
2023-05-17T22:35:42.920Z,102380.94
2023-05-17T22:38:29.104Z,102387.09
2023-05-17T22:41:16.401Z,102381.31
2023-05-17T22:44:02.558Z,102388.06
2023-05-17T22:46:48.457Z,102385.06
2023-05-17T22:49:34.619Z,102390.81
2023-05-17T22:52:21.744Z,102384.59
2023-05-17T22:55:09.041Z,102385.78
2023-05-17T22:57:57.860Z,102393.22
2023-05-17T23:00:44.104Z,102402.63
2023-05-17T23:03:30.180Z,102387.56
2023-05-17T23:06:16.577Z,102397.97
2023-05-17T23:09:05.088Z,102383.84
2023-05-17T23:11:51.366Z,102393.09
2023-05-17T23:14:38.597Z,102390.28
2023-05-17T23:17:24.598Z,102388.59
2023-05-17T23:20:12.213Z,102395.44
2023-05-17T23:22:59.429Z,102388.91
2023-05-17T23:25:48.435Z,102387.19
2023-05-17T23:28:35.387Z,102384.78
2023-05-17T23:31:22.915Z,102380.91
2023-05-17T23:34:09.055Z,102381.19
2023-05-17T23:36:54.839Z,102378.03
2023-05-17T23:39:40.827Z,102376.56
2023-05-17T23:42:29.004Z,102385.53
2023-05-17T23:45:14.915Z,102382.50
2023-05-17T23:48:02.280Z,102381.66
2023-05-17T23:50:48.422Z,102384.72
2023-05-17T23:53:34.388Z,102382.78
2023-05-17T23:56:21.434Z,102384.72
2023-05-17T23:59:07.496Z,102379.06
